createdAt,value
2022-10-03T00:00:36.862Z,2.17
2022-10-03T00:01:53.398Z,1.80
2022-10-03T00:03:16.846Z,2.00
2022-10-03T00:04:59.306Z,2.13
2022-10-03T00:06:22.248Z,1.95
2022-10-03T00:07:36.115Z,1.75
2022-10-03T00:09:18.597Z,1.95
2022-10-03T00:10:26.058Z,1.90
2022-10-03T00:11:59.855Z,1.83
2022-10-03T00:13:20.914Z,1.85
2022-10-03T00:14:31.372Z,2.08
2022-10-03T00:16:01.940Z,2.08
2022-10-03T00:17:15.219Z,1.98
2022-10-03T00:18:48.042Z,2.05
2022-10-03T00:20:02.484Z,1.80
2022-10-03T00:21:25.927Z,2.00
2022-10-03T00:22:48.313Z,2.08
2022-10-03T00:24:13.851Z,2.10
2022-10-03T00:25:18.426Z,2.15
2022-10-03T00:26:30.606Z,2.13
2022-10-03T00:27:44.417Z,2.10
2022-10-03T00:28:58.027Z,1.70
2022-10-03T00:30:05.933Z,1.77
2022-10-03T00:31:17.052Z,1.83
2022-10-03T00:32:38.437Z,2.08
2022-10-03T00:34:03.068Z,2.00
2022-10-03T00:35:20.802Z,1.70
2022-10-03T00:36:55.483Z,2.00
2022-10-03T00:38:11.585Z,2.03
2022-10-03T00:39:37.683Z,2.03
2022-10-03T00:41:04.323Z,2.05
2022-10-03T00:42:18.263Z,2.03
2022-10-03T00:43:56.855Z,2.13
2022-10-03T00:45:13.496Z,1.75
2022-10-03T00:46:36.584Z,2.10
2022-10-03T00:48:25.998Z,1.65
2022-10-03T00:50:02.842Z,2.08
2022-10-03T00:51:13.820Z,1.70
2022-10-03T00:52:51.032Z,2.03
2022-10-03T00:54:06.536Z,1.90
2022-10-03T00:55:34.381Z,1.73
2022-10-03T00:57:04.301Z,1.83
2022-10-03T00:58:22.496Z,1.80
2022-10-03T01:00:07.930Z,2.00
2022-10-03T01:01:49.064Z,1.85
2022-10-03T01:03:12.580Z,1.75
2022-10-03T01:04:27.020Z,2.05
2022-10-03T01:05:43.125Z,1.88
2022-10-03T01:07:06.053Z,2.10
2022-10-03T01:08:35.629Z,1.88
2022-10-03T01:09:58.558Z,1.90
2022-10-03T01:11:30.748Z,1.67
2022-10-03T01:12:55.007Z,1.75
2022-10-03T01:14:18.048Z,1.77
2022-10-03T01:15:32.222Z,1.75
2022-10-03T01:17:04.738Z,1.98
2022-10-03T01:18:30.148Z,1.73
2022-10-03T01:20:06.704Z,1.63
2022-10-03T01:21:11.075Z,1.70
2022-10-03T01:22:21.615Z,1.80
2022-10-03T01:23:38.310Z,1.60
2022-10-03T01:24:53.729Z,1.80
2022-10-03T01:26:19.818Z,1.85
2022-10-03T01:27:56.952Z,1.88
2022-10-03T01:29:22.132Z,1.80
2022-10-03T01:30:24.106Z,2.00
2022-10-03T01:31:55.698Z,1.90
2022-10-03T01:33:10.708Z,1.90
2022-10-03T01:34:21.629Z,1.67
2022-10-03T01:35:36.142Z,2.05
2022-10-03T01:36:49.943Z,2.00
2022-10-03T01:38:09.488Z,1.92
2022-10-03T01:39:50.621Z,2.00
2022-10-03T01:41:09.721Z,2.20
2022-10-03T01:42:41.146Z,2.05
2022-10-03T01:43:46.927Z,1.90
2022-10-03T01:45:03.476Z,1.98
2022-10-03T01:46:33.643Z,1.85
2022-10-03T01:47:47.895Z,2.42
2022-10-03T01:49:15.856Z,2.25
2022-10-03T01:50:46.567Z,1.90
2022-10-03T01:52:11.979Z,2.17
2022-10-03T01:53:37.060Z,1.95
2022-10-03T01:54:46.961Z,1.90
2022-10-03T01:55:51.529Z,2.22
2022-10-03T01:57:18.763Z,1.80
2022-10-03T01:58:34.593Z,2.28
2022-10-03T01:59:55.584Z,2.10
2022-10-03T02:01:10.665Z,2.28
2022-10-03T02:02:40.438Z,2.03
2022-10-03T02:03:57.196Z,1.67
2022-10-03T02:05:23.729Z,1.83
2022-10-03T02:06:35.302Z,2.20
2022-10-03T02:08:08.041Z,1.95
2022-10-03T02:09:16.527Z,1.98
2022-10-03T02:10:59.642Z,1.90
2022-10-03T02:12:19.877Z,2.03
2022-10-03T02:13:50.719Z,2.10
2022-10-03T02:15:37.571Z,2.20
2022-10-03T02:17:10.850Z,2.08
2022-10-03T02:18:25.350Z,2.20
2022-10-03T02:19:30.395Z,2.20
2022-10-03T02:20:43.352Z,2.28
2022-10-03T02:21:51.520Z,2.10
2022-10-03T02:22:56.185Z,2.00
2022-10-03T02:24:16.089Z,2.20
2022-10-03T02:25:31.412Z,1.75
2022-10-03T02:27:21.275Z,2.13
2022-10-03T02:28:34.989Z,2.38
2022-10-03T02:30:17.252Z,2.13
2022-10-03T02:31:57.768Z,2.30
2022-10-03T02:33:17.653Z,1.90
2022-10-03T02:34:25.348Z,2.22
2022-10-03T02:36:04.315Z,1.90
2022-10-03T02:37:08.620Z,2.00
2022-10-03T02:38:37.325Z,1.80
2022-10-03T02:40:17.776Z,1.83
2022-10-03T02:41:44.148Z,1.80
2022-10-03T02:43:16.135Z,2.00
2022-10-03T02:44:20.420Z,1.90
2022-10-03T02:45:43.509Z,2.05
2022-10-03T02:47:03.115Z,1.80
2022-10-03T02:48:43.104Z,1.90
2022-10-03T02:50:06.211Z,1.70
2022-10-03T02:51:10.684Z,1.73
2022-10-03T02:52:53.956Z,2.03
2022-10-03T02:54:37.770Z,1.70
2022-10-03T02:56:04.052Z,1.70
2022-10-03T02:57:23.479Z,1.70
2022-10-03T02:58:49.479Z,1.70
2022-10-03T03:00:04.090Z,1.60
2022-10-03T03:01:23.752Z,1.58
2022-10-03T03:03:04.296Z,1.67
2022-10-03T03:04:24.827Z,1.70
2022-10-03T03:05:45.369Z,1.70
2022-10-03T03:07:26.608Z,1.48
2022-10-03T03:08:43.515Z,1.77
2022-10-03T03:10:15.082Z,1.67
2022-10-03T03:11:39.461Z,1.42
2022-10-03T03:13:18.531Z,1.60
2022-10-03T03:14:26.660Z,1.70
2022-10-03T03:15:50.159Z,1.30
2022-10-03T03:17:24.519Z,1.60
2022-10-03T03:18:26.173Z,1.45
2022-10-03T03:19:36.548Z,1.60
2022-10-03T03:21:11.475Z,1.60
2022-10-03T03:22:25.972Z,1.70
2022-10-03T03:23:56.965Z,1.60
2022-10-03T03:25:16.994Z,1.55
2022-10-03T03:26:31.917Z,1.58
2022-10-03T03:28:27.706Z,1.60
2022-10-03T03:29:48.828Z,1.70
2022-10-03T03:30:50.479Z,1.70
2022-10-03T03:31:55.285Z,1.77
2022-10-03T03:33:07.164Z,1.70
2022-10-03T03:34:34.857Z,1.60
2022-10-03T03:36:10.450Z,1.80
2022-10-03T03:37:19.921Z,1.50
2022-10-03T03:38:35.511Z,1.70
2022-10-03T03:39:55.790Z,1.60
2022-10-03T03:41:31.326Z,1.40
2022-10-03T03:43:05.805Z,1.60
2022-10-03T03:44:29.950Z,1.70
2022-10-03T03:45:50.583Z,1.83
2022-10-03T03:47:24.621Z,1.50
2022-10-03T03:48:42.365Z,1.60
2022-10-03T03:50:07.835Z,1.90
2022-10-03T03:51:47.428Z,1.80
2022-10-03T03:52:59.709Z,1.80
2022-10-03T03:54:46.559Z,1.70
2022-10-03T03:56:09.534Z,1.83
2022-10-03T03:57:39.850Z,2.08
2022-10-03T03:59:05.680Z,2.05
2022-10-03T04:00:17.439Z,1.77
2022-10-03T04:01:31.936Z,1.70
2022-10-03T04:02:53.992Z,1.90
2022-10-03T04:04:16.982Z,1.63
2022-10-03T04:05:42.228Z,1.70
2022-10-03T04:06:57.836Z,1.50
2022-10-03T04:08:31.974Z,2.00
2022-10-03T04:09:45.744Z,1.67
2022-10-03T04:11:39.212Z,1.60
2022-10-03T04:13:02.338Z,1.58
2022-10-03T04:14:29.939Z,1.40
2022-10-03T04:15:37.301Z,1.75
2022-10-03T04:17:04.803Z,1.60
2022-10-03T04:18:54.170Z,1.83
2022-10-03T04:20:04.682Z,1.75
2022-10-03T04:21:07.140Z,1.70
2022-10-03T04:22:29.595Z,1.60
2022-10-03T04:23:43.766Z,1.50
2022-10-03T04:25:06.187Z,1.80
2022-10-03T04:26:29.056Z,1.50
2022-10-03T04:28:04.966Z,1.50
2022-10-03T04:29:06.693Z,1.88
2022-10-03T04:30:15.314Z,1.80
2022-10-03T04:31:49.607Z,1.42
2022-10-03T04:33:05.577Z,1.70
2022-10-03T04:34:10.270Z,1.55
2022-10-03T04:35:42.854Z,1.90
2022-10-03T04:37:03.660Z,1.80
2022-10-03T04:38:39.166Z,1.88
2022-10-03T04:40:11.941Z,1.77
2022-10-03T04:41:29.521Z,2.08
2022-10-03T04:42:58.407Z,1.65
2022-10-03T04:44:12.113Z,2.10
2022-10-03T04:45:19.816Z,1.90
2022-10-03T04:46:33.842Z,1.88
2022-10-03T04:47:52.778Z,1.70
2022-10-03T04:49:18.818Z,1.60
2022-10-03T04:50:32.822Z,1.73
2022-10-03T04:51:48.510Z,1.73
2022-10-03T04:53:25.985Z,1.92
2022-10-03T04:54:51.097Z,1.60
2022-10-03T04:56:12.929Z,1.73
2022-10-03T04:57:28.758Z,1.70
2022-10-03T04:58:39.479Z,1.67
2022-10-03T04:59:49.025Z,1.60
2022-10-03T05:00:57.544Z,1.80
2022-10-03T05:02:30.217Z,1.67
2022-10-03T05:03:49.740Z,1.77
2022-10-03T05:05:03.213Z,2.10
2022-10-03T05:06:32.367Z,1.75
2022-10-03T05:07:51.059Z,1.80
2022-10-03T05:09:11.771Z,1.60
2022-10-03T05:10:44.825Z,1.80
2022-10-03T05:11:59.654Z,1.65
2022-10-03T05:13:19.449Z,1.75
2022-10-03T05:14:30.187Z,1.70
2022-10-03T05:15:50.412Z,1.60
2022-10-03T05:17:07.495Z,1.70
2022-10-03T05:18:26.678Z,1.83
2022-10-03T05:19:46.843Z,1.95
2022-10-03T05:20:57.815Z,1.90
2022-10-03T05:22:08.292Z,1.60
2022-10-03T05:23:30.085Z,1.77
2022-10-03T05:25:02.898Z,1.70
2022-10-03T05:26:44.487Z,1.80
2022-10-03T05:28:15.547Z,2.03
2022-10-03T05:29:37.428Z,1.83
2022-10-03T05:31:17.872Z,1.55
2022-10-03T05:32:48.027Z,2.10
2022-10-03T05:34:12.790Z,1.83
2022-10-03T05:35:20.237Z,1.98
2022-10-03T05:36:43.834Z,2.03
2022-10-03T05:38:13.326Z,2.08
2022-10-03T05:39:26.495Z,1.77
2022-10-03T05:40:30.641Z,1.92
2022-10-03T05:41:36.423Z,1.90
2022-10-03T05:42:58.332Z,2.13
2022-10-03T05:44:17.788Z,2.00
2022-10-03T05:45:23.571Z,1.95
2022-10-03T05:47:05.446Z,2.08
2022-10-03T05:48:32.247Z,1.80
2022-10-03T05:49:36.423Z,2.00
2022-10-03T05:50:58.409Z,1.83
2022-10-03T05:52:28.845Z,2.00
2022-10-03T05:53:39.368Z,2.10
2022-10-03T05:54:50.421Z,1.70
2022-10-03T05:56:15.835Z,1.80
2022-10-03T05:57:32.716Z,1.90
2022-10-03T05:58:40.562Z,2.10
2022-10-03T06:00:00.130Z,1.92
2022-10-03T06:01:26.712Z,2.15
2022-10-03T06:02:49.894Z,2.20
2022-10-03T06:04:19.305Z,1.98
2022-10-03T06:05:35.962Z,1.98
2022-10-03T06:07:01.830Z,2.00
2022-10-03T06:08:41.905Z,2.20
2022-10-03T06:10:05.590Z,2.00
2022-10-03T06:11:22.155Z,1.90
2022-10-03T06:12:50.955Z,1.80
2022-10-03T06:14:35.510Z,2.17
2022-10-03T06:15:55.995Z,2.13
2022-10-03T06:17:24.563Z,2.03
2022-10-03T06:18:44.173Z,2.25
2022-10-03T06:19:56.943Z,1.63
2022-10-03T06:21:23.448Z,1.67
2022-10-03T06:22:34.120Z,2.13
2022-10-03T06:24:20.423Z,1.95
2022-10-03T06:25:48.212Z,2.15
2022-10-03T06:27:27.382Z,2.13
2022-10-03T06:28:48.716Z,2.17
2022-10-03T06:30:05.880Z,2.20
2022-10-03T06:31:07.662Z,2.00
2022-10-03T06:32:09.392Z,2.13
2022-10-03T06:33:32.713Z,2.17
2022-10-03T06:35:06.468Z,2.45
2022-10-03T06:36:23.480Z,2.38
2022-10-03T06:37:59.002Z,2.35
2022-10-03T06:39:34.571Z,2.30
2022-10-03T06:41:03.515Z,2.47
2022-10-03T06:42:24.851Z,2.63
2022-10-03T06:44:07.994Z,2.60
2022-10-03T06:45:30.850Z,2.47
2022-10-03T06:46:50.918Z,2.90
2022-10-03T06:48:01.311Z,2.80
2022-10-03T06:49:23.483Z,2.28
2022-10-03T06:50:30.846Z,2.47
2022-10-03T06:51:54.344Z,2.33
2022-10-03T06:53:01.906Z,2.15
2022-10-03T06:54:24.914Z,2.20
2022-10-03T06:56:10.952Z,2.70
2022-10-03T06:57:56.783Z,2.47
2022-10-03T06:58:59.414Z,2.13
2022-10-03T07:00:11.070Z,2.17
2022-10-03T07:01:12.977Z,2.30
2022-10-03T07:02:20.375Z,2.45
2022-10-03T07:03:44.154Z,2.20
2022-10-03T07:05:10.065Z,2.10
2022-10-03T07:06:20.796Z,2.00
2022-10-03T07:07:34.556Z,2.30
2022-10-03T07:09:13.953Z,2.22
2022-10-03T07:10:28.098Z,2.10
2022-10-03T07:11:56.272Z,2.05
2022-10-03T07:13:00.951Z,2.33
2022-10-03T07:14:33.910Z,2.30
2022-10-03T07:17:39.357Z,2.00
2022-10-03T07:18:56.340Z,2.13
2022-10-03T07:20:26.095Z,1.98
2022-10-03T07:21:31.262Z,1.95
2022-10-03T07:23:04.891Z,2.15
2022-10-03T07:24:25.657Z,2.13
2022-10-03T07:25:39.295Z,1.80
2022-10-03T07:27:05.092Z,1.92
2022-10-03T07:28:49.619Z,1.90
2022-10-03T07:30:09.717Z,2.20
2022-10-03T07:31:33.842Z,1.70
2022-10-03T07:33:11.508Z,1.77
2022-10-03T07:34:34.405Z,2.15
2022-10-03T07:36:04.167Z,1.73
2022-10-03T07:37:27.293Z,1.83
2022-10-03T07:38:59.783Z,1.83
2022-10-03T07:40:26.868Z,1.92
2022-10-03T07:42:09.624Z,1.95
2022-10-03T07:43:26.023Z,2.00
2022-10-03T07:44:36.929Z,2.00
2022-10-03T07:45:45.774Z,1.70
2022-10-03T07:47:45.725Z,1.80
2022-10-03T07:48:58.970Z,1.90
2022-10-03T07:50:30.326Z,1.92
2022-10-03T07:52:00.863Z,1.83
2022-10-03T07:53:14.426Z,1.70
2022-10-03T07:54:24.892Z,1.73
2022-10-03T07:55:50.960Z,1.63
2022-10-03T07:57:13.817Z,1.75
2022-10-03T07:58:37.950Z,1.77
2022-10-03T08:00:12.358Z,2.03
2022-10-03T08:01:48.653Z,1.85
2022-10-03T08:02:59.051Z,1.77
2022-10-03T08:04:22.661Z,1.55
2022-10-03T08:05:30.246Z,1.90
2022-10-03T08:06:45.566Z,1.85
2022-10-03T08:08:08.253Z,1.90
2022-10-03T08:09:37.019Z,2.17
2022-10-03T08:10:59.356Z,2.30
2022-10-03T08:12:33.520Z,1.88
2022-10-03T08:13:41.711Z,1.90
2022-10-03T08:14:53.317Z,1.70
2022-10-03T08:16:08.539Z,2.25
2022-10-03T08:17:15.895Z,1.80
2022-10-03T08:18:32.072Z,1.95
2022-10-03T08:20:11.278Z,2.10
2022-10-03T08:21:36.862Z,2.05
2022-10-03T08:22:54.637Z,1.70
2022-10-03T08:24:13.660Z,1.92
2022-10-03T08:25:21.814Z,1.80
2022-10-03T08:26:32.948Z,1.80
2022-10-03T08:28:04.841Z,1.65
2022-10-03T08:29:23.860Z,2.00
2022-10-03T08:31:36.076Z,1.73
2022-10-03T08:32:37.843Z,1.70
2022-10-03T08:33:51.711Z,1.92
2022-10-03T08:34:56.374Z,1.63
2022-10-03T08:36:22.484Z,1.92
2022-10-03T08:37:54.790Z,1.92
2022-10-03T08:39:18.438Z,2.10
2022-10-03T08:40:31.740Z,1.92
2022-10-03T08:41:39.520Z,1.70
2022-10-03T08:43:05.993Z,1.70
2022-10-03T08:44:13.752Z,2.08
2022-10-03T08:45:51.843Z,1.73
2022-10-03T08:47:32.885Z,1.80
2022-10-03T08:48:53.122Z,1.98
2022-10-03T08:50:05.687Z,2.03
2022-10-03T08:51:47.961Z,1.70
2022-10-03T08:53:20.712Z,1.60
2022-10-03T08:54:45.773Z,1.67
2022-10-03T08:56:28.053Z,2.10
2022-10-03T08:57:38.787Z,2.13
2022-10-03T08:59:08.291Z,1.50
2022-10-03T09:00:36.370Z,1.45
2022-10-03T09:02:07.559Z,1.70
2022-10-03T09:03:47.062Z,1.63
2022-10-03T09:04:51.442Z,1.58
2022-10-03T09:06:19.526Z,1.50
2022-10-03T09:07:33.071Z,1.80
2022-10-03T09:09:06.006Z,1.65
2022-10-03T09:10:45.206Z,1.63
2022-10-03T09:12:24.243Z,1.50
2022-10-03T09:13:37.992Z,1.60
2022-10-03T09:14:42.428Z,1.80
2022-10-03T09:15:47.080Z,1.85
2022-10-03T09:17:03.116Z,1.90
2022-10-03T09:18:30.618Z,1.60
2022-10-03T09:19:38.714Z,1.40
2022-10-03T09:20:53.470Z,1.67
2022-10-03T09:22:14.737Z,1.52
2022-10-03T09:23:38.900Z,1.60
2022-10-03T09:25:13.922Z,1.35
2022-10-03T09:26:43.632Z,1.60
2022-10-03T09:28:12.771Z,1.30
2022-10-03T09:29:32.082Z,1.73
2022-10-03T09:30:50.400Z,1.60
2022-10-03T09:32:13.802Z,1.30
2022-10-03T09:33:42.143Z,1.60
2022-10-03T09:35:21.054Z,1.45
2022-10-03T09:36:44.496Z,1.60
2022-10-03T09:38:07.755Z,1.45
2022-10-03T09:39:30.950Z,1.30
2022-10-03T09:40:44.344Z,1.25
2022-10-03T09:42:00.934Z,1.27
2022-10-03T09:43:35.285Z,1.45
2022-10-03T09:45:19.051Z,1.52
2022-10-03T09:46:44.129Z,1.30
2022-10-03T09:48:24.111Z,1.30
2022-10-03T09:49:50.244Z,1.48
2022-10-03T09:51:02.033Z,1.17
2022-10-03T09:52:39.599Z,1.52
2022-10-03T09:53:56.399Z,1.38
2022-10-03T09:55:19.843Z,1.15
2022-10-03T09:56:40.657Z,1.25
2022-10-03T09:57:45.461Z,1.20
2022-10-03T09:59:11.257Z,1.40
2022-10-03T10:00:20.258Z,1.13
2022-10-03T10:01:42.935Z,1.20
2022-10-03T10:03:06.506Z,1.15
2022-10-03T10:04:50.219Z,1.08
2022-10-03T10:06:30.065Z,1.17
2022-10-03T10:07:34.639Z,1.23
2022-10-03T10:09:13.539Z,1.30
2022-10-03T10:10:21.016Z,1.02
2022-10-03T10:11:39.331Z,1.02
2022-10-03T10:13:18.320Z,0.85
2022-10-03T10:15:11.187Z,0.85
2022-10-03T10:16:52.027Z,0.90
2022-10-03T10:18:21.828Z,0.90
2022-10-03T10:19:31.673Z,0.90
2022-10-03T10:20:42.106Z,1.10
2022-10-03T10:21:49.469Z,0.90
2022-10-03T10:23:00.159Z,0.98
2022-10-03T10:24:28.178Z,1.00
2022-10-03T10:25:38.777Z,0.90
2022-10-03T10:26:54.145Z,0.70
2022-10-03T10:27:58.604Z,0.95
2022-10-03T10:29:26.686Z,0.80
2022-10-03T10:30:49.951Z,0.88
2022-10-03T10:32:21.534Z,0.70
2022-10-03T10:34:00.515Z,0.90
2022-10-03T10:35:31.212Z,1.00
2022-10-03T10:36:42.290Z,1.20
2022-10-03T10:38:09.656Z,0.80
2022-10-03T10:39:28.120Z,0.82
2022-10-03T10:40:59.851Z,0.90
2022-10-03T10:42:17.038Z,0.95
2022-10-03T10:43:49.597Z,1.08
2022-10-03T10:45:15.658Z,1.10
2022-10-03T10:46:23.063Z,1.00
2022-10-03T10:47:42.707Z,0.95
2022-10-03T10:49:38.360Z,0.90
2022-10-03T10:51:07.960Z,0.80
2022-10-03T10:52:27.966Z,1.17
2022-10-03T10:54:00.161Z,0.80
2022-10-03T10:55:03.731Z,1.02
2022-10-03T10:56:23.151Z,0.80
2022-10-03T10:57:59.929Z,0.75
2022-10-03T10:59:39.177Z,0.68
2022-10-03T11:00:58.946Z,0.70
2022-10-03T11:02:26.900Z,0.75
2022-10-03T11:03:47.318Z,0.75
2022-10-03T11:05:22.752Z,0.75
2022-10-03T11:06:29.944Z,1.02
2022-10-03T11:08:13.629Z,0.70
2022-10-03T11:09:33.980Z,1.00
2022-10-03T11:11:13.155Z,0.68
2022-10-03T11:12:44.166Z,0.80
2022-10-03T11:14:09.953Z,0.88
2022-10-03T11:15:36.728Z,1.10
2022-10-03T11:17:38.341Z,0.80
2022-10-03T11:19:14.081Z,0.70
2022-10-03T11:20:24.597Z,1.02
2022-10-03T11:21:33.301Z,0.63
2022-10-03T11:22:58.971Z,0.60
2022-10-03T11:24:41.295Z,0.60
2022-10-03T11:26:01.178Z,0.75
2022-10-03T11:27:20.910Z,0.75
2022-10-03T11:28:40.680Z,0.50
2022-10-03T11:30:19.251Z,0.60
2022-10-03T11:31:48.855Z,0.57
2022-10-03T11:33:15.069Z,0.55
2022-10-03T11:34:38.505Z,0.57
2022-10-03T11:35:46.028Z,0.70
2022-10-03T11:37:11.400Z,0.63
2022-10-03T11:38:25.369Z,0.70
2022-10-03T11:39:49.177Z,0.70
2022-10-03T11:41:11.620Z,0.63
2022-10-03T11:42:25.276Z,0.63
2022-10-03T11:43:45.255Z,0.57
2022-10-03T11:44:58.122Z,0.70
2022-10-03T11:46:21.471Z,0.60
2022-10-03T11:48:01.361Z,0.60
2022-10-03T11:49:30.699Z,0.60
2022-10-03T11:50:50.333Z,0.60
2022-10-03T11:52:24.419Z,0.70
2022-10-03T11:53:41.563Z,0.60
2022-10-03T11:54:49.195Z,1.00
2022-10-03T11:56:12.731Z,0.40
2022-10-03T11:57:23.466Z,0.80
2022-10-03T11:58:25.312Z,0.80
2022-10-03T11:59:48.651Z,0.80
2022-10-03T12:01:16.631Z,0.70
2022-10-03T12:03:03.137Z,0.85
2022-10-03T12:04:23.682Z,0.77
2022-10-03T12:05:37.894Z,0.80
2022-10-03T12:07:13.125Z,0.70
2022-10-03T12:08:50.092Z,1.10
2022-10-03T12:10:38.540Z,1.00
2022-10-03T12:11:53.806Z,0.77
2022-10-03T12:12:57.516Z,0.80
2022-10-03T12:14:11.150Z,1.30
2022-10-03T12:15:30.600Z,0.70
2022-10-03T12:16:54.242Z,0.82
2022-10-03T12:18:11.934Z,0.88
2022-10-03T12:19:25.096Z,0.80
2022-10-03T12:20:42.008Z,0.73
2022-10-03T12:22:01.097Z,0.80
2022-10-03T12:23:20.916Z,0.45
2022-10-03T12:24:28.154Z,0.52
2022-10-03T12:25:35.074Z,0.68
2022-10-03T12:26:55.406Z,0.50
2022-10-03T12:28:01.239Z,1.00
2022-10-03T12:29:05.207Z,0.70
2022-10-03T12:30:16.448Z,0.70
2022-10-03T12:31:21.892Z,0.50
2022-10-03T12:32:44.220Z,0.60
2022-10-03T12:33:51.702Z,0.55
2022-10-03T12:35:07.762Z,0.68
2022-10-03T12:36:15.485Z,0.70
2022-10-03T12:37:24.747Z,0.70
2022-10-03T12:38:51.275Z,0.68
2022-10-03T12:40:15.814Z,0.50
2022-10-03T12:41:43.052Z,0.80
2022-10-03T12:43:02.236Z,0.60
2022-10-03T12:44:07.035Z,0.65
2022-10-03T12:45:47.672Z,0.60
2022-10-03T12:47:37.707Z,0.70
2022-10-03T12:48:55.655Z,0.50
2022-10-03T12:50:29.290Z,0.43
2022-10-03T12:51:51.699Z,0.60
2022-10-03T12:53:02.706Z,0.45
2022-10-03T12:54:16.468Z,0.57
2022-10-03T12:55:28.416Z,0.40
2022-10-03T12:56:39.168Z,0.50
2022-10-03T12:57:49.568Z,0.52
2022-10-03T12:59:11.477Z,0.55
2022-10-03T13:00:27.781Z,0.60
2022-10-03T13:01:38.707Z,0.57
2022-10-03T13:03:06.393Z,0.40
2022-10-03T13:04:08.044Z,0.40
2022-10-03T13:05:38.548Z,0.60
2022-10-03T13:07:05.839Z,0.60
2022-10-03T13:08:19.682Z,0.35
2022-10-03T13:09:50.036Z,0.52
2022-10-03T13:11:03.155Z,0.40
2022-10-03T13:12:17.688Z,0.60
2022-10-03T13:13:36.552Z,0.55
2022-10-03T13:14:45.870Z,0.50
2022-10-03T13:16:19.791Z,0.52
2022-10-03T13:17:37.315Z,0.70
2022-10-03T13:18:51.119Z,0.70
2022-10-03T13:20:11.079Z,0.60
2022-10-03T13:21:44.573Z,0.45
2022-10-03T13:22:57.901Z,0.55
2022-10-03T13:24:09.815Z,0.73
2022-10-03T13:25:22.816Z,0.70
2022-10-03T13:26:50.875Z,0.60
2022-10-03T13:28:11.173Z,0.70
2022-10-03T13:29:25.609Z,0.75
2022-10-03T13:30:32.790Z,0.57
2022-10-03T13:31:39.193Z,0.90
2022-10-03T13:32:58.392Z,1.02
2022-10-03T13:34:12.837Z,0.47
2022-10-03T13:35:39.425Z,1.05
2022-10-03T13:36:55.215Z,0.68
2022-10-03T13:38:07.720Z,0.85
2022-10-03T13:39:38.472Z,0.70
2022-10-03T13:40:48.046Z,0.60
2022-10-03T13:42:20.848Z,0.88
2022-10-03T13:43:33.390Z,0.60
2022-10-03T13:44:40.310Z,0.68
2022-10-03T13:45:44.733Z,0.85
2022-10-03T13:46:53.503Z,0.70
2022-10-03T13:48:06.787Z,0.88
2022-10-03T13:49:22.801Z,0.80
2022-10-03T13:50:43.487Z,0.70
2022-10-03T13:52:16.598Z,0.80
2022-10-03T13:53:30.124Z,0.73
2022-10-03T13:55:03.630Z,0.80
2022-10-03T13:56:14.178Z,0.60
2022-10-03T13:57:21.878Z,0.65
2022-10-03T13:58:36.705Z,0.70
2022-10-03T13:59:50.661Z,0.80
2022-10-03T14:01:17.355Z,1.00
2022-10-03T14:02:50.284Z,0.88
2022-10-03T14:04:22.802Z,0.70
2022-10-03T14:06:10.239Z,0.65
2022-10-03T14:07:41.041Z,0.60
2022-10-03T14:09:12.241Z,0.68
2022-10-03T14:10:26.815Z,0.50
2022-10-03T14:12:12.010Z,0.60
2022-10-03T14:13:38.753Z,0.60
2022-10-03T14:14:43.516Z,0.75
2022-10-03T14:16:13.627Z,0.60
2022-10-03T14:17:26.183Z,0.55
2022-10-03T14:18:45.743Z,0.50
2022-10-03T14:19:59.736Z,0.30
2022-10-03T14:21:29.292Z,0.40
2022-10-03T14:22:45.608Z,0.50
2022-10-03T14:24:01.347Z,0.52
2022-10-03T14:25:41.295Z,0.40
2022-10-03T14:26:45.543Z,0.65
2022-10-03T14:27:59.235Z,0.43
2022-10-03T14:29:26.097Z,0.50
2022-10-03T14:30:36.776Z,0.40
2022-10-03T14:31:57.508Z,0.47
2022-10-03T14:33:13.207Z,0.40
2022-10-03T14:34:41.005Z,0.28
2022-10-03T14:36:17.023Z,0.43
2022-10-03T14:37:27.680Z,0.40
2022-10-03T14:39:03.359Z,0.50
2022-10-03T14:40:07.949Z,0.60
2022-10-03T14:41:14.899Z,0.38
2022-10-03T14:42:38.204Z,0.40
2022-10-03T14:43:49.786Z,0.63
2022-10-03T14:45:01.787Z,0.40
2022-10-03T14:46:06.235Z,0.40
2022-10-03T14:47:14.937Z,0.40
2022-10-03T14:48:22.396Z,0.50
2022-10-03T14:51:10.462Z,0.45
2022-10-03T14:52:28.904Z,0.30
2022-10-03T14:53:31.081Z,0.38
2022-10-03T14:54:37.730Z,0.40
2022-10-03T14:55:46.668Z,0.50
2022-10-03T14:56:51.607Z,0.40
2022-10-03T14:58:10.244Z,0.43
2022-10-03T14:59:20.628Z,0.30
2022-10-03T15:00:27.813Z,0.30
2022-10-03T15:01:30.124Z,0.30
2022-10-03T15:02:38.700Z,0.55
2022-10-03T15:03:45.324Z,0.28
2022-10-03T15:04:47.947Z,0.45
2022-10-03T15:05:59.420Z,0.50
2022-10-03T15:07:02.926Z,0.73
2022-10-03T15:08:15.372Z,0.80
2022-10-03T15:09:24.686Z,0.50
2022-10-03T15:10:29.333Z,0.50
2022-10-03T15:11:36.942Z,0.52
2022-10-03T15:12:43.929Z,0.52
2022-10-03T15:13:53.283Z,0.55
2022-10-03T15:15:01.245Z,0.55
2022-10-03T15:16:03.221Z,0.35
2022-10-03T15:17:16.688Z,0.60
2022-10-03T15:18:23.133Z,0.60
2022-10-03T15:19:39.720Z,0.50
2022-10-03T15:20:43.397Z,0.30
2022-10-03T15:21:47.262Z,0.50
2022-10-03T15:22:53.520Z,0.40
2022-10-03T15:24:02.072Z,0.32
2022-10-03T15:25:09.860Z,0.40
2022-10-03T15:26:21.944Z,0.52
2022-10-03T15:27:26.759Z,0.50
2022-10-03T15:28:37.008Z,0.47
2022-10-03T15:29:40.508Z,0.68
2022-10-03T15:30:43.267Z,0.68
2022-10-03T15:31:49.280Z,0.32
2022-10-03T15:32:53.175Z,0.50
2022-10-03T15:33:56.186Z,0.50
2022-10-03T15:35:02.138Z,0.40
2022-10-03T15:36:14.809Z,0.50
2022-10-03T15:37:20.800Z,0.63
2022-10-03T15:38:27.381Z,0.30
2022-10-03T15:39:35.486Z,0.50
2022-10-03T15:40:47.112Z,0.40
2022-10-03T15:41:56.641Z,0.40
2022-10-03T15:43:08.626Z,0.40
2022-10-03T15:44:29.087Z,0.45
2022-10-03T15:45:34.933Z,0.68
2022-10-03T15:46:43.499Z,0.38
2022-10-03T15:47:47.880Z,0.50
2022-10-03T15:48:54.381Z,0.45
2022-10-03T15:50:07.173Z,0.57
2022-10-03T15:51:19.695Z,0.50
2022-10-03T15:52:42.740Z,0.40
2022-10-03T15:53:50.252Z,0.50
2022-10-03T15:55:10.944Z,0.50
2022-10-03T15:56:46.433Z,0.50
2022-10-03T15:57:51.192Z,0.50
2022-10-03T15:59:01.248Z,0.50
2022-10-03T16:00:04.887Z,0.60
2022-10-03T16:01:20.818Z,0.57
2022-10-03T16:02:27.176Z,0.55
2022-10-03T16:03:32.656Z,0.70
2022-10-03T16:04:38.326Z,0.70
2022-10-03T16:05:55.120Z,0.80
2022-10-03T16:07:07.965Z,0.70
2022-10-03T16:08:19.661Z,0.55
2022-10-03T16:09:46.315Z,0.60
2022-10-03T16:11:29.035Z,0.70
2022-10-03T16:12:52.075Z,0.65
2022-10-03T16:13:53.742Z,0.43
2022-10-03T16:15:17.013Z,0.63
2022-10-03T16:16:38.455Z,0.77
2022-10-03T16:17:57.232Z,0.50
2022-10-03T16:19:06.701Z,0.45
2022-10-03T16:20:45.836Z,0.50
2022-10-03T16:22:29.594Z,0.60
2022-10-03T16:23:36.751Z,0.57
2022-10-03T16:24:57.360Z,0.60
2022-10-03T16:26:04.479Z,0.40
2022-10-03T16:27:23.345Z,0.47
2022-10-03T16:28:35.292Z,0.70
2022-10-03T16:29:42.578Z,0.60
2022-10-03T16:30:59.934Z,0.70
2022-10-03T16:32:15.836Z,0.50
2022-10-03T16:33:24.310Z,0.57
2022-10-03T16:34:31.115Z,0.50
2022-10-03T16:35:49.014Z,0.60
2022-10-03T16:36:51.541Z,0.77
2022-10-03T16:37:53.970Z,0.80
2022-10-03T16:39:00.079Z,1.10
2022-10-03T16:40:07.556Z,0.95
2022-10-03T16:41:09.197Z,0.90
2022-10-03T16:42:19.034Z,1.08
2022-10-03T16:43:22.334Z,1.65
2022-10-03T16:44:31.192Z,1.55
2022-10-03T16:45:46.658Z,1.08
2022-10-03T16:46:49.738Z,1.05
2022-10-03T16:48:13.779Z,1.10
2022-10-03T16:49:43.340Z,1.42
2022-10-03T16:50:50.058Z,1.20
2022-10-03T16:52:10.700Z,1.00
2022-10-03T16:53:13.990Z,1.20
2022-10-03T16:54:18.808Z,0.77
2022-10-03T16:55:28.486Z,0.82
2022-10-03T16:56:36.595Z,0.68
2022-10-03T16:57:48.117Z,0.88
2022-10-03T16:58:55.657Z,0.73
2022-10-03T17:00:00.305Z,0.90
2022-10-03T17:02:30.780Z,0.73
2022-10-03T17:04:10.115Z,0.57
2022-10-03T17:05:15.081Z,0.60
2022-10-03T17:06:29.813Z,1.00
2022-10-03T17:07:40.029Z,0.90
2022-10-03T17:08:49.557Z,0.88
2022-10-03T17:09:55.815Z,0.93
2022-10-03T17:11:01.174Z,0.90
2022-10-03T17:12:06.336Z,0.88
2022-10-03T17:13:18.699Z,0.80
2022-10-03T17:14:22.123Z,0.82
2022-10-03T17:15:29.416Z,0.60
2022-10-03T17:16:37.513Z,0.70
2022-10-03T17:18:02.793Z,0.70
2022-10-03T17:19:16.275Z,0.50
2022-10-03T17:20:38.253Z,0.68
2022-10-03T17:21:49.218Z,0.50
2022-10-03T17:22:50.928Z,0.47
2022-10-03T17:24:21.045Z,0.47
2022-10-03T17:25:31.486Z,0.80
2022-10-03T17:26:39.435Z,0.90
2022-10-03T17:27:43.349Z,0.60
2022-10-03T17:29:11.203Z,0.90
2022-10-03T17:30:18.695Z,0.63
2022-10-03T17:31:30.343Z,0.90
2022-10-03T17:32:44.399Z,0.90
2022-10-03T17:33:54.238Z,0.73
2022-10-03T17:35:19.155Z,0.60
2022-10-03T17:36:37.714Z,0.65
2022-10-03T17:38:30.383Z,0.63
2022-10-03T17:40:09.958Z,0.85
2022-10-03T17:41:21.254Z,0.60
2022-10-03T17:42:41.531Z,0.52
2022-10-03T17:44:19.835Z,0.40
2022-10-03T17:45:40.155Z,0.50
2022-10-03T17:46:52.188Z,0.60
2022-10-03T17:48:05.020Z,0.60
2022-10-03T17:49:12.529Z,0.70
2022-10-03T17:50:40.621Z,0.63
2022-10-03T17:51:45.184Z,0.45
2022-10-03T17:52:48.978Z,0.38